»·PEaware :: N6843H KYKM-KGEG

N6843H :: KYKM-KGEG

FLIGHT INFORMATION

Flight Status: Arrived
Operator: Privately registered:
United States
More flights under this callsign
Pilot: Aaron T. (15959)
Aircraft: PIPER PA-46-500TP MALIBU MERIDIAN
(P46T)
More flights by this aircraft type
Origin: KYKM Yakima Air Term/Mcallister
United States
Destination: KGEG Spokane Intl
United States
More flights between these airports :: More routes between these airports
Route: +GEG
File this flight plan on PilotEdge
Remarks:
Altitude:
(Current/Filed)
12,000ft
Speed:
(Current/Filed)
190kts
Departed: 16-Jul-17 07:39 PM
Arrived: 16-Jul-17 08:38 PM
Distance/Time
Traveled:
139nm/0:59
Distance/Time
To Go:
Arrived

Flight Plot

Page will automatically refresh every two minutes.

Flight plan parsing failed; only flown route is shown


Map Options




Map Legend


Flown Route
Filed Route
Departure Airport
Arrival Airport
Navaid (VOR, NDB)
Fix

Horizontal Profiles

Position Reports

Time Latitude Longitude Heading Altitude Ground
Speed
16-Jul-17 19:26 46.568721 -120.532259 152 1098ft 0kts
16-Jul-17 19:27 46.568720 -120.532258 152 1098ft 0kts
16-Jul-17 19:28 46.568719 -120.532257 152 1098ft 0kts
16-Jul-17 19:29 46.568717 -120.532256 152 1098ft 0kts
16-Jul-17 19:30 46.568716 -120.532255 152 1098ft 0kts
16-Jul-17 19:31 46.568715 -120.532254 152 1098ft 0kts
16-Jul-17 19:32 46.568713 -120.532253 152 1098ft 0kts
16-Jul-17 19:33 46.568711 -120.532252 152 1098ft 0kts
16-Jul-17 19:34 46.568710 -120.532251 152 1098ft 0kts
16-Jul-17 19:35 46.568709 -120.532250 152 1098ft 0kts
16-Jul-17 19:36 46.568707 -120.532249 152 1098ft 0kts
16-Jul-17 19:37 46.568706 -120.532248 152 1098ft 0kts
16-Jul-17 19:38 46.568506 -120.532100 152 1098ft 1kts
16-Jul-17 19:39 46.566867 -120.531124 169 1098ft 7kts
16-Jul-17 19:40 46.566388 -120.531065 178 1098ft 0kts
16-Jul-17 19:41 46.566339 -120.531064 180 1098ft 1kts
16-Jul-17 19:42 46.566859 -120.536841 290 1098ft 73kts
16-Jul-17 19:43 46.576413 -120.585021 274 1751ft 155kts
16-Jul-17 19:44 46.573477 -120.648101 267 2672ft 155kts
16-Jul-17 19:45 46.542111 -120.667890 151 3581ft 168kts
16-Jul-17 19:46 46.499323 -120.637907 155 4488ft 171kts
16-Jul-17 19:47 46.460443 -120.597662 135 5392ft 173kts
16-Jul-17 19:48 46.429876 -120.544645 148 6296ft 176kts
16-Jul-17 19:49 46.408482 -120.484137 91 7172ft 180kts
16-Jul-17 19:50 46.411466 -120.410758 72 7985ft 185kts
16-Jul-17 19:51 46.430981 -120.342768 53 8792ft 182kts
16-Jul-17 19:52 46.464027 -120.289150 35 9603ft 175kts
16-Jul-17 19:53 46.502403 -120.247636 20 10407ft 171kts
16-Jul-17 19:54 46.518249 -120.197343 111 11188ft 171kts
16-Jul-17 19:55 46.500309 -120.132632 105 11920ft 173kts
16-Jul-17 19:56 46.484969 -120.066951 105 12001ft 179kts
16-Jul-17 19:57 46.467799 -119.991929 109 12009ft 211kts
16-Jul-17 19:58 46.449119 -119.910710 109 11947ft 214kts
16-Jul-17 19:59 46.464891 -119.838926 34 11946ft 203kts
16-Jul-17 20:00 46.504961 -119.780905 43 11935ft 205kts
16-Jul-17 20:01 46.540998 -119.715573 47 11928ft 208kts
16-Jul-17 20:02 46.575533 -119.649123 50 11924ft 205kts
16-Jul-17 20:03 46.608986 -119.583832 48 11950ft 194kts
16-Jul-17 20:04 46.639476 -119.524215 51 11937ft 176kts
16-Jul-17 20:05 46.668272 -119.467815 53 11940ft 172kts
16-Jul-17 20:06 46.696809 -119.411726 53 11942ft 172kts
16-Jul-17 20:07 46.725207 -119.355799 52 11947ft 171kts
16-Jul-17 20:08 46.753530 -119.299918 52 11953ft 171kts
16-Jul-17 20:09 46.781819 -119.243977 50 11966ft 171kts
16-Jul-17 20:10 46.810059 -119.188040 50 11970ft 171kts
16-Jul-17 20:11 46.838364 -119.131862 49 11973ft 172kts
16-Jul-17 20:12 46.866753 -119.075400 50 11974ft 172kts
16-Jul-17 20:13 46.894911 -119.019284 51 11972ft 171kts
16-Jul-17 20:14 46.923087 -118.963003 51 11972ft 171kts
16-Jul-17 20:15 46.951180 -118.906767 49 11988ft 172kts
16-Jul-17 20:16 46.979272 -118.850461 50 11988ft 171kts
16-Jul-17 20:17 47.007478 -118.793865 55 11984ft 170kts
16-Jul-17 20:18 47.035223 -118.737910 55 11984ft 169kts
16-Jul-17 20:19 47.062836 -118.682182 54 11987ft 168kts
16-Jul-17 20:20 47.090430 -118.626388 53 11993ft 168kts
16-Jul-17 20:21 47.118021 -118.570463 49 12001ft 172kts
16-Jul-17 20:22 47.147816 -118.510239 48 12001ft 193kts
16-Jul-17 20:23 47.180856 -118.443097 48 12008ft 209kts
16-Jul-17 20:24 47.215188 -118.372994 48 12012ft 212kts
16-Jul-17 20:25 47.249880 -118.301976 49 12023ft 214kts
16-Jul-17 20:26 47.284663 -118.230563 47 12001ft 209kts
16-Jul-17 20:27 47.316244 -118.165344 46 11330ft 184kts
16-Jul-17 20:28 47.345639 -118.104994 46 10418ft 182kts
16-Jul-17 20:29 47.375509 -118.043431 47 9417ft 185kts
16-Jul-17 20:30 47.405513 -117.981327 49 8421ft 186kts
16-Jul-17 20:31 47.435553 -117.919005 50 7319ft 185kts
16-Jul-17 20:32 47.465385 -117.856981 51 6121ft 184kts
16-Jul-17 20:33 47.494813 -117.795667 52 5128ft 180kts
16-Jul-17 20:34 47.524657 -117.733404 52 5001ft 185kts
16-Jul-17 20:35 47.554530 -117.671878 50 4989ft 184kts
16-Jul-17 20:36 47.588388 -117.614881 47 4893ft 186kts
16-Jul-17 20:37 47.625990 -117.560510 42 4735ft 185kts
16-Jul-17 20:38 47.659735 -117.517499 36 3642ft 131kts
16-Jul-17 20:39 47.656031 -117.487312 205 3234ft 110kts
16-Jul-17 20:40 47.632795 -117.515776 225 2434ft 94kts
16-Jul-17 20:41 47.623999 -117.529070 223 2375ft 4kts
16-Jul-17 20:42 47.621381 -117.530754 176 2375ft 11kts
16-Jul-17 20:43 47.620330 -117.529296 103 2375ft 5kts
16-Jul-17 20:44 47.619888 -117.523818 62 2375ft 13kts
16-Jul-17 20:45 47.620206 -117.523622 354 2375ft 0kts

Navigation Log

Ident Type
Flight plan parsing failed, navigation log unavailable